createdAt,value
2019-04-04T00:00:58.955Z,9.53
2019-04-04T00:03:30.405Z,10.30
2019-04-04T00:06:01.985Z,9.80
2019-04-04T00:08:33.733Z,9.73
2019-04-04T00:11:06.080Z,10.78
2019-04-04T00:13:38.228Z,9.78
2019-04-04T00:16:09.509Z,10.40
2019-04-04T00:18:41.226Z,10.75
2019-04-04T00:21:12.776Z,11.30
2019-04-04T00:23:44.483Z,12.03
2019-04-04T00:26:15.882Z,11.15
2019-04-04T00:28:47.584Z,11.68
2019-04-04T00:31:19.768Z,10.55
2019-04-04T00:36:22.845Z,11.48
2019-04-04T00:38:54.864Z,10.90
2019-04-04T00:41:26.537Z,12.70
2019-04-04T00:43:58.246Z,11.20
2019-04-04T00:46:30.884Z,12.30
2019-04-04T00:49:04.922Z,11.85
2019-04-04T00:51:38.699Z,12.25
2019-04-04T00:54:09.752Z,11.53
2019-04-04T00:56:41.133Z,11.77
2019-04-04T00:59:12.840Z,12.75
2019-04-04T01:01:44.597Z,12.50
2019-04-04T01:04:16.338Z,12.80
2019-04-04T01:06:47.909Z,11.88
2019-04-04T01:09:19.763Z,11.47
2019-04-04T01:11:51.867Z,12.43
2019-04-04T01:14:23.490Z,12.30
2019-04-04T01:16:54.949Z,12.70
2019-04-04T01:19:26.521Z,13.25
2019-04-04T01:24:29.949Z,13.03
2019-04-04T01:27:01.396Z,13.43
2019-04-04T01:29:33.247Z,13.32
2019-04-04T01:32:05.138Z,13.95
2019-04-04T01:34:36.920Z,13.20
2019-04-04T01:37:08.595Z,13.55
2019-04-04T01:39:40.036Z,10.37
2019-04-04T01:42:11.893Z,14.58
2019-04-04T01:44:44.381Z,14.65
2019-04-04T01:47:17.057Z,13.73
2019-04-04T01:49:49.972Z,12.93
2019-04-04T01:52:22.934Z,14.10
2019-04-04T01:54:54.883Z,13.93
2019-04-04T01:57:26.778Z,14.65
2019-04-04T01:59:58.132Z,12.73
2019-04-04T02:02:30.522Z,14.30
2019-04-04T02:05:02.414Z,13.58
2019-04-04T02:07:34.072Z,13.78
2019-04-04T02:10:06.568Z,13.70
2019-04-04T02:12:39.260Z,13.93
2019-04-04T02:15:13.777Z,15.03
2019-04-04T02:17:44.336Z,14.63
2019-04-04T02:20:16.779Z,14.05
2019-04-04T02:22:48.466Z,13.58
2019-04-04T02:25:19.865Z,14.25
2019-04-04T02:27:51.392Z,14.38
2019-04-04T02:30:22.879Z,15.88
2019-04-04T02:32:59.428Z,14.10
2019-04-04T02:35:28.681Z,14.23
2019-04-04T02:38:02.863Z,15.00
2019-04-04T02:40:34.728Z,14.70
2019-04-04T02:43:06.436Z,14.87
2019-04-04T02:45:39.107Z,15.08
2019-04-04T02:48:10.803Z,16.55
2019-04-04T02:50:42.392Z,16.65
2019-04-04T02:55:47.117Z,14.83
2019-04-04T02:58:18.679Z,15.40
2019-04-04T03:00:50.231Z,16.30
2019-04-04T03:03:21.894Z,15.70
2019-04-04T03:05:53.514Z,15.25
2019-04-04T03:08:25.184Z,12.50
2019-04-04T03:10:56.774Z,16.55
2019-04-04T03:13:31.168Z,15.60
2019-04-04T03:16:01.571Z,15.88
2019-04-04T03:18:34.829Z,16.82
2019-04-04T03:21:06.454Z,16.12
2019-04-04T03:23:37.969Z,11.83
2019-04-04T03:26:09.834Z,16.45
2019-04-04T03:28:41.591Z,16.37
2019-04-04T03:31:13.246Z,15.78
2019-04-04T03:33:44.622Z,15.37
2019-04-04T03:36:16.217Z,15.72
2019-04-04T03:38:48.884Z,16.62
2019-04-04T03:41:20.739Z,15.85
2019-04-04T03:43:52.251Z,16.65
2019-04-04T03:46:24.197Z,11.95
2019-04-04T03:48:55.552Z,16.97
2019-04-04T03:51:27.301Z,16.15
2019-04-04T03:54:00.219Z,16.03
2019-04-04T03:56:38.781Z,16.10
2019-04-04T03:59:05.249Z,15.25
2019-04-04T04:01:36.969Z,16.15
2019-04-04T04:04:08.450Z,16.13
2019-04-04T04:06:41.932Z,16.90
2019-04-04T04:09:14.522Z,16.82
2019-04-04T04:11:46.486Z,18.20
2019-04-04T04:14:21.648Z,16.75
2019-04-04T04:16:51.236Z,17.05
2019-04-04T04:19:24.525Z,16.30
2019-04-04T04:21:55.970Z,16.93
2019-04-04T04:24:29.816Z,16.87
2019-04-04T04:27:01.100Z,16.50
2019-04-04T04:29:34.015Z,16.17
2019-04-04T04:32:05.469Z,18.02
2019-04-04T04:34:37.148Z,18.05
2019-04-04T04:37:08.468Z,18.07
2019-04-04T04:39:41.440Z,17.37
2019-04-04T04:44:43.842Z,18.12
2019-04-04T04:47:15.367Z,17.63
2019-04-04T04:49:47.146Z,17.97
2019-04-04T04:52:18.528Z,20.70
2019-04-04T04:54:50.086Z,19.82
2019-04-04T04:57:29.503Z,18.93
2019-04-04T04:59:55.582Z,18.65
2019-04-04T05:02:26.958Z,18.80
2019-04-04T05:04:59.424Z,18.75
2019-04-04T05:07:31.314Z,18.05
2019-04-04T05:10:03.268Z,19.20
2019-04-04T05:12:34.810Z,18.67
2019-04-04T05:15:07.342Z,17.85
2019-04-04T05:17:40.029Z,17.42
2019-04-04T05:20:12.287Z,16.82
2019-04-04T05:22:43.711Z,17.60
2019-04-04T05:25:15.848Z,17.20
2019-04-04T05:27:47.762Z,17.60
2019-04-04T05:30:20.461Z,16.82
2019-04-04T05:32:56.268Z,19.27
2019-04-04T05:35:25.792Z,15.80
2019-04-04T05:37:57.440Z,17.62
2019-04-04T05:40:30.683Z,15.87
2019-04-04T05:43:04.189Z,15.72
2019-04-04T05:45:35.452Z,16.65
2019-04-04T05:48:07.108Z,16.75
2019-04-04T05:50:38.453Z,17.77
2019-04-04T05:53:10.212Z,17.07
2019-04-04T05:55:42.486Z,16.02
2019-04-04T05:58:14.346Z,16.37
2019-04-04T06:00:46.934Z,16.27
2019-04-04T06:03:18.605Z,16.77
2019-04-04T06:05:50.358Z,16.70
2019-04-04T06:08:22.112Z,16.23
2019-04-04T06:10:54.043Z,15.78
2019-04-04T06:13:27.014Z,18.40
2019-04-04T06:15:58.747Z,16.77
2019-04-04T06:18:30.239Z,16.17
2019-04-04T06:21:01.836Z,15.75
2019-04-04T06:23:33.653Z,15.85
2019-04-04T06:26:07.416Z,16.25
2019-04-04T06:28:38.813Z,16.67
2019-04-04T06:31:10.607Z,16.37
2019-04-04T06:33:42.360Z,16.70
2019-04-04T06:36:17.612Z,16.23
2019-04-04T06:38:49.772Z,16.23
2019-04-04T06:41:21.383Z,16.77
2019-04-04T06:43:54.323Z,15.68
2019-04-04T06:46:26.048Z,15.95
2019-04-04T06:48:57.957Z,15.63
2019-04-04T06:51:29.553Z,15.98
2019-04-04T06:54:01.441Z,14.58
2019-04-04T06:56:33.019Z,14.93
2019-04-04T06:59:04.927Z,15.32
2019-04-04T07:01:36.602Z,14.87
2019-04-04T07:04:08.236Z,15.08
2019-04-04T07:06:41.761Z,14.63
2019-04-04T07:09:13.591Z,15.30
2019-04-04T07:14:17.493Z,15.18
2019-04-04T07:16:49.460Z,14.20
2019-04-04T07:19:21.136Z,13.45
2019-04-04T07:21:52.795Z,13.98
2019-04-04T07:24:24.303Z,13.60
2019-04-04T07:26:55.863Z,13.38
2019-04-04T07:29:27.782Z,15.83
2019-04-04T07:31:59.542Z,13.83
2019-04-04T07:34:30.979Z,14.60
2019-04-04T07:37:03.130Z,12.82
2019-04-04T07:39:34.812Z,11.53
2019-04-04T07:42:06.602Z,12.10
2019-04-04T07:44:38.512Z,11.68
2019-04-04T07:47:10.453Z,11.90
2019-04-04T07:49:41.814Z,11.22
2019-04-04T07:52:13.934Z,11.55
2019-04-04T07:54:45.529Z,8.03
2019-04-04T07:57:19.712Z,8.83
2019-04-04T07:59:50.339Z,6.83
2019-04-04T08:02:22.261Z,4.55
2019-04-04T08:04:53.900Z,5.67
2019-04-04T08:07:25.425Z,5.35
2019-04-04T08:09:56.927Z,5.90
2019-04-04T08:12:28.787Z,5.67
2019-04-04T08:15:00.539Z,4.00
2019-04-04T08:17:32.300Z,5.40
2019-04-04T08:20:04.674Z,4.83
2019-04-04T08:22:39.460Z,3.12
2019-04-04T08:25:09.357Z,3.25
2019-04-04T08:27:40.934Z,4.83
2019-04-04T08:30:12.819Z,3.10
2019-04-04T08:32:44.237Z,2.70
2019-04-04T08:35:15.509Z,3.22
2019-04-04T08:37:47.277Z,3.20
2019-04-04T08:40:18.599Z,4.30
2019-04-04T08:42:50.163Z,3.67
2019-04-04T08:45:21.825Z,3.75
2019-04-04T08:47:53.678Z,4.80
2019-04-04T08:50:25.358Z,4.08
2019-04-04T08:52:56.856Z,4.87
2019-04-04T08:55:28.225Z,4.78
2019-04-04T08:58:00.182Z,6.03
2019-04-04T09:00:31.603Z,5.07
2019-04-04T09:03:03.344Z,4.58
2019-04-04T09:05:34.763Z,4.83
2019-04-04T09:08:06.414Z,4.17
2019-04-04T09:10:37.774Z,5.40
2019-04-04T09:13:09.912Z,5.20
2019-04-04T09:15:41.463Z,5.28
2019-04-04T09:18:13.341Z,5.50
2019-04-04T09:20:44.677Z,4.47
2019-04-04T09:23:16.530Z,4.35
2019-04-04T09:25:47.991Z,5.03
2019-04-04T09:28:19.750Z,4.55
2019-04-04T09:30:51.615Z,4.47
2019-04-04T09:33:23.175Z,4.95
2019-04-04T09:35:54.919Z,4.67
2019-04-04T09:38:29.055Z,4.30
2019-04-04T09:40:59.679Z,5.28
2019-04-04T09:43:31.278Z,4.40
2019-04-04T09:46:02.748Z,4.85
2019-04-04T09:48:34.427Z,5.12
2019-04-04T09:51:06.203Z,4.90
2019-04-04T09:53:52.386Z,4.58
2019-04-04T09:56:13.270Z,5.15
2019-04-04T09:58:44.797Z,4.53
2019-04-04T10:01:16.386Z,4.95
2019-04-04T10:03:47.835Z,5.43
2019-04-04T10:06:19.636Z,4.62
2019-04-04T10:08:51.041Z,4.95
2019-04-04T10:11:22.699Z,7.58
2019-04-04T10:13:54.153Z,6.20
2019-04-04T10:16:25.876Z,5.33
2019-04-04T10:18:57.455Z,6.45
2019-04-04T10:21:29.159Z,6.58
2019-04-04T10:24:01.522Z,5.92
2019-04-04T10:26:33.061Z,5.95
2019-04-04T10:29:04.646Z,6.20
2019-04-04T10:31:36.488Z,6.33
2019-04-04T10:34:08.183Z,6.30
2019-04-04T10:36:39.964Z,5.60
2019-04-04T10:39:12.986Z,6.33
2019-04-04T10:41:44.619Z,5.80
2019-04-04T10:44:16.157Z,5.90
2019-04-04T10:46:47.836Z,5.72
2019-04-04T10:49:19.301Z,5.97
2019-04-04T10:51:51.126Z,5.92
2019-04-04T10:56:54.278Z,5.58
2019-04-04T10:59:25.995Z,5.67
2019-04-04T11:02:00.735Z,5.60
2019-04-04T11:04:31.158Z,6.80
2019-04-04T11:07:02.907Z,5.60
2019-04-04T11:09:41.733Z,5.07
2019-04-04T11:12:07.508Z,5.58
2019-04-04T11:14:39.002Z,5.83
2019-04-04T11:17:10.665Z,6.00
2019-04-04T11:19:43.519Z,5.67
2019-04-04T11:22:15.262Z,4.90
2019-04-04T11:24:46.788Z,5.60
2019-04-04T11:27:18.644Z,4.83
2019-04-04T11:29:49.862Z,5.60
2019-04-04T11:32:21.899Z,4.87
2019-04-04T11:34:53.922Z,4.75
2019-04-04T11:37:25.423Z,5.57
2019-04-04T11:39:57.711Z,5.43
2019-04-04T11:42:29.076Z,4.72
2019-04-04T11:45:00.859Z,12.18
2019-04-04T11:47:33.483Z,4.50
2019-04-04T11:50:07.618Z,5.28
2019-04-04T11:52:39.032Z,4.87
2019-04-04T11:55:10.683Z,4.53
2019-04-04T11:57:42.257Z,5.40
2019-04-04T12:00:15.365Z,4.92
2019-04-04T12:02:46.915Z,5.25
2019-04-04T12:05:18.800Z,4.90
2019-04-04T12:07:50.355Z,4.87
2019-04-04T12:10:21.758Z,4.00
2019-04-04T12:12:53.318Z,4.25
2019-04-04T12:15:24.983Z,4.60
2019-04-04T12:17:56.750Z,4.27
2019-04-04T12:20:28.068Z,4.33
2019-04-04T12:22:59.707Z,4.53
2019-04-04T12:25:31.234Z,3.67
2019-04-04T12:28:03.168Z,4.00
2019-04-04T12:30:34.696Z,4.65
2019-04-04T12:33:06.487Z,4.50
2019-04-04T12:35:38.326Z,6.33
2019-04-04T12:38:10.130Z,5.37
2019-04-04T12:40:41.945Z,5.42
2019-04-04T12:43:13.791Z,4.53
2019-04-04T12:45:45.454Z,4.47
2019-04-04T12:48:16.892Z,5.20
2019-04-04T12:50:48.625Z,4.55
2019-04-04T12:53:20.614Z,4.20
2019-04-04T12:55:54.158Z,4.33
2019-04-04T12:58:25.187Z,4.17
2019-04-04T13:00:56.609Z,4.22
2019-04-04T13:03:28.706Z,3.17
2019-04-04T13:06:00.440Z,3.50
2019-04-04T13:08:32.129Z,3.30
2019-04-04T13:11:03.543Z,3.33
2019-04-04T13:13:37.993Z,3.37
2019-04-04T13:16:09.335Z,3.33
2019-04-04T13:18:40.893Z,3.62
2019-04-04T13:21:12.383Z,3.87
2019-04-04T13:23:44.376Z,3.80
2019-04-04T13:26:15.886Z,3.35
2019-04-04T13:28:47.503Z,3.87
2019-04-04T13:31:18.734Z,3.90
2019-04-04T13:33:51.222Z,3.80
2019-04-04T13:36:22.546Z,4.78
2019-04-04T13:38:55.166Z,4.22
2019-04-04T13:41:27.496Z,4.80
2019-04-04T13:43:59.046Z,3.60
2019-04-04T13:46:30.719Z,3.87
2019-04-04T13:49:02.362Z,4.22
2019-04-04T13:51:33.736Z,4.20
2019-04-04T13:54:05.616Z,4.60
2019-04-04T13:56:37.049Z,4.72
2019-04-04T13:59:08.592Z,4.00
2019-04-04T14:01:42.789Z,3.98
2019-04-04T14:04:13.309Z,4.62
2019-04-04T14:06:45.105Z,4.30
2019-04-04T14:09:16.889Z,4.20
2019-04-04T14:11:48.383Z,4.30
2019-04-04T14:14:20.034Z,4.47
2019-04-04T14:16:51.704Z,4.45
2019-04-04T14:19:22.891Z,4.13
2019-04-04T14:21:54.496Z,4.08
2019-04-04T14:24:26.144Z,4.33
2019-04-04T14:26:57.553Z,4.87
2019-04-04T14:29:28.980Z,4.22
2019-04-04T14:32:00.800Z,4.58
2019-04-04T14:34:32.479Z,4.22
2019-04-04T14:37:04.440Z,5.37
2019-04-04T14:39:35.839Z,3.70
2019-04-04T14:42:07.453Z,4.20
2019-04-04T14:44:39.292Z,4.60
2019-04-04T14:47:10.946Z,4.70
2019-04-04T14:49:45.079Z,5.07
2019-04-04T14:52:19.528Z,4.12
2019-04-04T14:54:49.356Z,4.10
2019-04-04T14:57:20.946Z,4.13
2019-04-04T14:59:52.601Z,4.12
2019-04-04T15:02:24.166Z,4.80
2019-04-04T15:04:56.061Z,3.52
2019-04-04T15:07:27.463Z,4.72
2019-04-04T15:09:59.124Z,4.80
2019-04-04T15:12:30.787Z,5.50
2019-04-04T15:15:02.612Z,6.03
2019-04-04T15:17:34.081Z,7.62
2019-04-04T15:20:08.876Z,5.53
2019-04-04T15:22:40.597Z,5.08
2019-04-04T15:25:12.233Z,4.97
2019-04-04T15:27:43.839Z,4.70
2019-04-04T15:30:15.465Z,5.15
2019-04-04T15:32:47.290Z,5.40
2019-04-04T15:35:18.840Z,4.72
2019-04-04T15:37:50.261Z,5.22
2019-04-04T15:40:21.743Z,4.78
2019-04-04T15:42:53.087Z,4.92
2019-04-04T15:45:24.785Z,5.30
2019-04-04T15:47:56.096Z,5.90
2019-04-04T15:50:27.949Z,5.05
2019-04-04T15:52:59.159Z,5.25
2019-04-04T15:55:30.758Z,5.83
2019-04-04T15:58:01.993Z,5.40
2019-04-04T16:00:33.765Z,4.78
2019-04-04T16:03:05.260Z,5.28
2019-04-04T16:05:38.808Z,5.22
2019-04-04T16:08:10.476Z,6.15
2019-04-04T16:10:42.015Z,5.65
2019-04-04T16:13:13.468Z,5.97
2019-04-04T16:15:45.234Z,5.55
2019-04-04T16:18:16.736Z,6.37
2019-04-04T16:20:48.235Z,5.78
2019-04-04T16:23:19.518Z,6.50
2019-04-04T16:25:51.176Z,5.53
2019-04-04T16:28:22.625Z,6.10
2019-04-04T16:30:54.072Z,7.20
2019-04-04T16:33:26.564Z,6.30
2019-04-04T16:35:58.245Z,5.87
2019-04-04T16:38:30.017Z,5.15
2019-04-04T16:41:01.474Z,5.62
2019-04-04T16:43:33.334Z,8.23
2019-04-04T16:46:04.874Z,6.83
2019-04-04T16:48:36.439Z,5.87
2019-04-04T16:51:07.643Z,6.22
2019-04-04T16:53:39.225Z,5.67
2019-04-04T16:56:10.886Z,6.03
2019-04-04T16:58:42.572Z,5.87
2019-04-04T17:01:14.158Z,6.30
2019-04-04T17:03:45.879Z,5.87
2019-04-04T17:06:17.107Z,6.72
2019-04-04T17:08:48.895Z,5.77
2019-04-04T17:11:20.247Z,5.22
2019-04-04T17:13:51.965Z,60.20
2019-04-04T17:18:56.632Z,8.50
2019-04-04T17:21:27.956Z,5.47
2019-04-04T17:23:59.730Z,6.25
2019-04-04T17:26:31.126Z,6.25
2019-04-04T17:29:02.864Z,6.17
2019-04-04T17:31:34.480Z,6.57
2019-04-04T17:34:05.768Z,6.53
2019-04-04T17:36:38.029Z,6.62
2019-04-04T17:39:10.000Z,9.60
2019-04-04T17:41:41.788Z,6.12
2019-04-04T17:44:14.686Z,21.42
2019-04-04T17:46:48.311Z,11.80
2019-04-04T17:49:20.228Z,11.90
2019-04-04T17:51:51.915Z,10.60
2019-04-04T17:54:23.597Z,7.07
2019-04-04T17:56:55.267Z,10.20
2019-04-04T17:59:26.877Z,9.53
2019-04-04T18:01:58.541Z,8.83
2019-04-04T18:04:29.881Z,9.78
2019-04-04T18:07:01.504Z,13.38
2019-04-04T18:09:33.172Z,11.15
2019-04-04T18:12:05.030Z,12.30
2019-04-04T18:14:36.708Z,12.60
2019-04-04T18:17:08.570Z,9.80
2019-04-04T18:19:40.144Z,12.25
2019-04-04T18:22:11.778Z,9.85
2019-04-04T18:24:43.438Z,10.60
2019-04-04T18:27:14.958Z,11.83
2019-04-04T18:29:46.805Z,8.05
2019-04-04T18:32:18.394Z,8.30
2019-04-04T18:34:49.725Z,7.72
2019-04-04T18:39:53.359Z,7.72
2019-04-04T18:42:25.376Z,9.28
2019-04-04T18:47:28.920Z,47.70
2019-04-04T18:50:00.726Z,20.20
2019-04-04T18:52:32.579Z,19.53
2019-04-04T18:55:05.470Z,19.62
2019-04-04T18:57:37.164Z,14.20
2019-04-04T19:00:11.825Z,19.48
2019-04-04T19:02:43.561Z,10.08
2019-04-04T19:05:15.323Z,9.30
2019-04-04T19:07:47.130Z,8.80
2019-04-04T19:10:18.560Z,9.50
2019-04-04T19:12:50.017Z,9.28
2019-04-04T19:15:21.689Z,9.07
2019-04-04T19:17:53.428Z,9.60
2019-04-04T19:20:25.198Z,8.83
2019-04-04T19:22:56.805Z,8.80
2019-04-04T19:25:28.269Z,9.43
2019-04-04T19:28:00.041Z,11.03
2019-04-04T19:33:03.181Z,9.23
2019-04-04T19:35:34.946Z,10.17
2019-04-04T19:38:06.920Z,10.08
2019-04-04T19:40:38.801Z,9.63
2019-04-04T19:43:17.926Z,10.10
2019-04-04T19:45:43.869Z,11.43
2019-04-04T19:48:15.542Z,12.20
2019-04-04T19:50:47.017Z,15.30
2019-04-04T19:53:18.549Z,13.20
2019-04-04T19:55:50.056Z,14.87
2019-04-04T19:58:21.600Z,15.20
2019-04-04T20:00:52.994Z,18.73
2019-04-04T20:03:24.639Z,20.17
2019-04-04T20:05:56.420Z,19.17
2019-04-04T20:08:28.563Z,18.42
2019-04-04T20:11:02.316Z,18.67
2019-04-04T20:13:34.524Z,17.32
2019-04-04T20:16:05.943Z,18.77
2019-04-04T20:18:37.512Z,16.17
2019-04-04T20:21:09.404Z,16.45
2019-04-04T20:23:41.089Z,16.93
2019-04-04T20:26:12.694Z,17.75
2019-04-04T20:28:44.681Z,14.85
2019-04-04T20:31:16.353Z,15.53
2019-04-04T20:34:00.660Z,16.50
2019-04-04T20:36:21.587Z,16.55
2019-04-04T20:38:53.248Z,16.32
2019-04-04T20:41:24.939Z,16.17
2019-04-04T20:43:56.554Z,17.10
2019-04-04T20:46:28.642Z,14.58
2019-04-04T20:49:00.070Z,15.83
2019-04-04T20:51:32.132Z,17.20
2019-04-04T20:54:04.092Z,15.70
2019-04-04T20:56:35.917Z,15.87
2019-04-04T20:59:07.569Z,15.10
2019-04-04T21:01:38.839Z,16.87
2019-04-04T21:04:10.620Z,17.87
2019-04-04T21:06:42.177Z,15.23
2019-04-04T21:09:13.658Z,19.48
2019-04-04T21:11:44.990Z,19.82
2019-04-04T21:14:16.887Z,18.90
2019-04-04T21:16:48.278Z,17.87
2019-04-04T21:19:20.032Z,16.30
2019-04-04T21:21:51.601Z,16.67
2019-04-04T21:24:23.651Z,16.05
2019-04-04T21:26:55.037Z,15.35
2019-04-04T21:29:26.682Z,14.55
2019-04-04T21:31:57.980Z,14.10
2019-04-04T21:34:29.683Z,14.83
2019-04-04T21:37:01.016Z,13.53
2019-04-04T21:42:04.353Z,14.05
2019-04-04T21:44:36.487Z,12.75
2019-04-04T21:49:39.754Z,13.78
2019-04-04T21:52:11.454Z,14.43
2019-04-04T21:54:43.513Z,14.28
2019-04-04T21:57:15.175Z,10.03
2019-04-04T21:59:46.628Z,12.80
2019-04-04T22:02:18.287Z,14.55
2019-04-04T22:04:49.721Z,14.80
2019-04-04T22:07:21.396Z,13.90
2019-04-04T22:09:56.079Z,13.05
2019-04-04T22:12:27.692Z,13.30
2019-04-04T22:14:59.422Z,13.93
2019-04-04T22:17:31.286Z,14.83
2019-04-04T22:20:02.883Z,14.33
2019-04-04T22:22:34.824Z,14.23
2019-04-04T22:25:07.232Z,13.62
2019-04-04T22:27:38.829Z,11.00
2019-04-04T22:30:10.078Z,14.03
2019-04-04T22:32:41.854Z,14.35
2019-04-04T22:35:13.294Z,15.00
2019-04-04T22:37:44.944Z,13.50
2019-04-04T22:40:16.383Z,10.77
2019-04-04T22:42:48.142Z,13.75
2019-04-04T22:45:19.609Z,13.95
2019-04-04T22:47:51.360Z,13.00
2019-04-04T22:50:22.711Z,13.23
2019-04-04T22:52:54.825Z,13.03
2019-04-04T22:55:26.814Z,13.55
2019-04-04T22:57:58.387Z,13.08
2019-04-04T23:00:29.708Z,13.72
2019-04-04T23:03:02.493Z,13.90
2019-04-04T23:05:33.859Z,13.60
2019-04-04T23:08:07.473Z,13.48
2019-04-04T23:10:38.714Z,13.68
2019-04-04T23:13:10.262Z,14.38
2019-04-04T23:15:41.811Z,13.33
2019-04-04T23:18:13.501Z,13.20
2019-04-04T23:20:44.834Z,14.27
2019-04-04T23:23:16.679Z,13.08
2019-04-04T23:25:48.227Z,13.68
2019-04-04T23:28:19.986Z,15.23
2019-04-04T23:30:51.642Z,13.77
2019-04-04T23:33:23.099Z,13.10
2019-04-04T23:35:54.782Z,12.13
2019-04-04T23:38:26.507Z,12.55
2019-04-04T23:40:58.051Z,14.43
2019-04-04T23:43:29.614Z,9.80
2019-04-04T23:46:01.002Z,13.15
2019-04-04T23:48:32.502Z,13.32
2019-04-04T23:51:04.494Z,13.20
2019-04-04T23:53:35.989Z,13.22
2019-04-04T23:56:07.892Z,9.83
2019-04-04T23:58:39.137Z,13.10
